sensor_id;sensor_type;location;lat;lon;timestamp;P1;durP1;ratioP1;P2;durP2;ratioP2
15655;SDS011;7928;43.614;1.456;2023-04-06T00:00:48;5.90;;;4.43;;
15655;SDS011;7928;43.614;1.456;2023-04-06T00:03:15;7.93;;;4.13;;
15655;SDS011;7928;43.614;1.456;2023-04-06T00:05:43;5.70;;;3.63;;
15655;SDS011;7928;43.614;1.456;2023-04-06T00:08:10;8.47;;;4.53;;
15655;SDS011;7928;43.614;1.456;2023-04-06T00:10:38;5.83;;;3.63;;
15655;SDS011;7928;43.614;1.456;2023-04-06T00:13:05;9.70;;;4.47;;
15655;SDS011;7928;43.614;1.456;2023-04-06T00:15:33;5.60;;;4.00;;
15655;SDS011;7928;43.614;1.456;2023-04-06T00:18:00;6.30;;;3.97;;
15655;SDS011;7928;43.614;1.456;2023-04-06T00:20:27;7.23;;;4.50;;
15655;SDS011;7928;43.614;1.456;2023-04-06T00:22:54;9.33;;;4.20;;
15655;SDS011;7928;43.614;1.456;2023-04-06T00:25:21;5.97;;;4.33;;
15655;SDS011;7928;43.614;1.456;2023-04-06T00:27:49;6.90;;;4.30;;
15655;SDS011;7928;43.614;1.456;2023-04-06T00:30:16;6.23;;;4.07;;
15655;SDS011;7928;43.614;1.456;2023-04-06T00:32:44;5.27;;;3.40;;
15655;SDS011;7928;43.614;1.456;2023-04-06T00:35:11;4.67;;;3.27;;
15655;SDS011;7928;43.614;1.456;2023-04-06T00:37:38;4.57;;;2.93;;
15655;SDS011;7928;43.614;1.456;2023-04-06T00:40:05;6.23;;;3.50;;
15655;SDS011;7928;43.614;1.456;2023-04-06T00:42:33;3.50;;;2.77;;
15655;SDS011;7928;43.614;1.456;2023-04-06T00:45:02;3.87;;;2.80;;
15655;SDS011;7928;43.614;1.456;2023-04-06T00:47:29;4.53;;;3.20;;
15655;SDS011;7928;43.614;1.456;2023-04-06T00:49:56;3.53;;;2.37;;
15655;SDS011;7928;43.614;1.456;2023-04-06T00:52:23;4.73;;;2.70;;
15655;SDS011;7928;43.614;1.456;2023-04-06T00:54:50;4.27;;;2.70;;
15655;SDS011;7928;43.614;1.456;2023-04-06T00:57:18;3.70;;;2.53;;
15655;SDS011;7928;43.614;1.456;2023-04-06T00:59:45;4.53;;;2.70;;
15655;SDS011;7928;43.614;1.456;2023-04-06T01:02:14;4.77;;;2.50;;
15655;SDS011;7928;43.614;1.456;2023-04-06T01:04:41;3.07;;;2.63;;
15655;SDS011;7928;43.614;1.456;2023-04-06T01:07:09;5.00;;;2.77;;
15655;SDS011;7928;43.614;1.456;2023-04-06T01:09:36;4.57;;;2.97;;
15655;SDS011;7928;43.614;1.456;2023-04-06T01:12:06;3.80;;;2.47;;
15655;SDS011;7928;43.614;1.456;2023-04-06T01:14:33;3.27;;;2.53;;
15655;SDS011;7928;43.614;1.456;2023-04-06T01:17:00;4.43;;;2.53;;
15655;SDS011;7928;43.614;1.456;2023-04-06T01:19:28;8.47;;;3.17;;
15655;SDS011;7928;43.614;1.456;2023-04-06T01:21:56;3.93;;;2.80;;
15655;SDS011;7928;43.614;1.456;2023-04-06T01:24:24;3.67;;;2.63;;
15655;SDS011;7928;43.614;1.456;2023-04-06T01:26:51;5.63;;;2.43;;
15655;SDS011;7928;43.614;1.456;2023-04-06T01:29:18;3.73;;;2.57;;
15655;SDS011;7928;43.614;1.456;2023-04-06T01:31:45;6.50;;;2.50;;
15655;SDS011;7928;43.614;1.456;2023-04-06T01:34:12;3.27;;;2.70;;
15655;SDS011;7928;43.614;1.456;2023-04-06T01:36:39;4.13;;;2.50;;
15655;SDS011;7928;43.614;1.456;2023-04-06T01:39:06;4.07;;;2.33;;
15655;SDS011;7928;43.614;1.456;2023-04-06T01:41:35;4.67;;;2.90;;
15655;SDS011;7928;43.614;1.456;2023-04-06T01:44:02;4.73;;;3.13;;
15655;SDS011;7928;43.614;1.456;2023-04-06T01:46:30;4.77;;;2.60;;
15655;SDS011;7928;43.614;1.456;2023-04-06T01:48:58;3.53;;;2.50;;
15655;SDS011;7928;43.614;1.456;2023-04-06T01:51:25;5.10;;;2.50;;
15655;SDS011;7928;43.614;1.456;2023-04-06T01:53:52;3.27;;;2.37;;
15655;SDS011;7928;43.614;1.456;2023-04-06T01:56:20;4.23;;;2.77;;
15655;SDS011;7928;43.614;1.456;2023-04-06T01:58:48;4.67;;;2.10;;
15655;SDS011;7928;43.614;1.456;2023-04-06T02:01:15;4.00;;;2.10;;
15655;SDS011;7928;43.614;1.456;2023-04-06T02:03:42;5.10;;;2.77;;
15655;SDS011;7928;43.614;1.456;2023-04-06T02:06:09;5.50;;;2.70;;
15655;SDS011;7928;43.614;1.456;2023-04-06T02:08:36;3.60;;;2.43;;
15655;SDS011;7928;43.614;1.456;2023-04-06T02:11:04;3.13;;;2.00;;
15655;SDS011;7928;43.614;1.456;2023-04-06T02:13:31;3.73;;;2.50;;
15655;SDS011;7928;43.614;1.456;2023-04-06T02:15:59;3.80;;;2.37;;
15655;SDS011;7928;43.614;1.456;2023-04-06T02:18:27;3.03;;;2.37;;
15655;SDS011;7928;43.614;1.456;2023-04-06T02:20:54;4.50;;;2.93;;
15655;SDS011;7928;43.614;1.456;2023-04-06T02:23:22;3.70;;;2.20;;
15655;SDS011;7928;43.614;1.456;2023-04-06T02:25:49;3.47;;;2.27;;
15655;SDS011;7928;43.614;1.456;2023-04-06T02:28:16;4.13;;;2.93;;
15655;SDS011;7928;43.614;1.456;2023-04-06T02:30:43;5.87;;;2.57;;
15655;SDS011;7928;43.614;1.456;2023-04-06T02:33:11;3.53;;;2.40;;
15655;SDS011;7928;43.614;1.456;2023-04-06T02:35:38;3.97;;;2.40;;
15655;SDS011;7928;43.614;1.456;2023-04-06T02:38:05;2.93;;;2.20;;
15655;SDS011;7928;43.614;1.456;2023-04-06T02:40:32;5.07;;;2.10;;
15655;SDS011;7928;43.614;1.456;2023-04-06T02:42:59;4.50;;;2.20;;
15655;SDS011;7928;43.614;1.456;2023-04-06T02:45:26;5.70;;;2.70;;
15655;SDS011;7928;43.614;1.456;2023-04-06T02:47:53;4.20;;;1.90;;
15655;SDS011;7928;43.614;1.456;2023-04-06T02:50:22;3.33;;;2.30;;
15655;SDS011;7928;43.614;1.456;2023-04-06T02:52:49;4.60;;;2.20;;
15655;SDS011;7928;43.614;1.456;2023-04-06T02:55:16;3.90;;;2.10;;
15655;SDS011;7928;43.614;1.456;2023-04-06T02:57:44;4.17;;;2.20;;
15655;SDS011;7928;43.614;1.456;2023-04-06T03:00:12;3.50;;;2.30;;
15655;SDS011;7928;43.614;1.456;2023-04-06T03:02:39;3.07;;;2.33;;
15655;SDS011;7928;43.614;1.456;2023-04-06T03:05:06;3.27;;;2.47;;
15655;SDS011;7928;43.614;1.456;2023-04-06T03:07:35;3.60;;;2.30;;
15655;SDS011;7928;43.614;1.456;2023-04-06T03:10:02;5.07;;;1.97;;
15655;SDS011;7928;43.614;1.456;2023-04-06T03:12:29;2.63;;;2.07;;
15655;SDS011;7928;43.614;1.456;2023-04-06T03:14:56;4.03;;;2.27;;
15655;SDS011;7928;43.614;1.456;2023-04-06T03:17:24;3.97;;;2.37;;
15655;SDS011;7928;43.614;1.456;2023-04-06T03:19:50;3.43;;;2.20;;
15655;SDS011;7928;43.614;1.456;2023-04-06T03:22:17;3.03;;;1.93;;
15655;SDS011;7928;43.614;1.456;2023-04-06T03:24:47;3.83;;;2.30;;
15655;SDS011;7928;43.614;1.456;2023-04-06T03:27:14;2.87;;;2.03;;
15655;SDS011;7928;43.614;1.456;2023-04-06T03:29:41;5.73;;;2.20;;
15655;SDS011;7928;43.614;1.456;2023-04-06T03:32:08;4.40;;;2.33;;
15655;SDS011;7928;43.614;1.456;2023-04-06T03:34:35;3.40;;;1.70;;
15655;SDS011;7928;43.614;1.456;2023-04-06T03:37:02;3.40;;;2.20;;
15655;SDS011;7928;43.614;1.456;2023-04-06T03:39:30;2.77;;;1.90;;
15655;SDS011;7928;43.614;1.456;2023-04-06T03:41:58;4.80;;;2.30;;
15655;SDS011;7928;43.614;1.456;2023-04-06T03:44:25;3.33;;;2.10;;
15655;SDS011;7928;43.614;1.456;2023-04-06T03:46:52;4.10;;;2.40;;
15655;SDS011;7928;43.614;1.456;2023-04-06T03:49:19;2.57;;;1.83;;
15655;SDS011;7928;43.614;1.456;2023-04-06T03:51:46;2.93;;;1.80;;
15655;SDS011;7928;43.614;1.456;2023-04-06T03:54:13;4.10;;;1.80;;
15655;SDS011;7928;43.614;1.456;2023-04-06T03:56:40;2.63;;;2.07;;
15655;SDS011;7928;43.614;1.456;2023-04-06T03:59:08;3.17;;;2.27;;
15655;SDS011;7928;43.614;1.456;2023-04-06T04:01:35;2.87;;;1.77;;
15655;SDS011;7928;43.614;1.456;2023-04-06T04:04:04;3.23;;;2.00;;
15655;SDS011;7928;43.614;1.456;2023-04-06T04:06:31;5.57;;;2.10;;
15655;SDS011;7928;43.614;1.456;2023-04-06T04:08:58;3.87;;;2.20;;
15655;SDS011;7928;43.614;1.456;2023-04-06T04:11:25;4.13;;;2.20;;
15655;SDS011;7928;43.614;1.456;2023-04-06T04:13:53;3.47;;;1.97;;
15655;SDS011;7928;43.614;1.456;2023-04-06T04:16:21;2.73;;;2.37;;
15655;SDS011;7928;43.614;1.456;2023-04-06T04:18:48;5.07;;;2.27;;
15655;SDS011;7928;43.614;1.456;2023-04-06T04:21:15;4.63;;;2.30;;
15655;SDS011;7928;43.614;1.456;2023-04-06T04:23:42;2.80;;;2.10;;
15655;SDS011;7928;43.614;1.456;2023-04-06T04:26:09;3.07;;;2.50;;
15655;SDS011;7928;43.614;1.456;2023-04-06T04:28:36;2.87;;;2.00;;
15655;SDS011;7928;43.614;1.456;2023-04-06T04:31:03;3.00;;;2.17;;
15655;SDS011;7928;43.614;1.456;2023-04-06T04:33:32;6.47;;;3.07;;
15655;SDS011;7928;43.614;1.456;2023-04-06T04:35:59;3.33;;;2.00;;
15655;SDS011;7928;43.614;1.456;2023-04-06T04:38:26;3.03;;;2.30;;
15655;SDS011;7928;43.614;1.456;2023-04-06T04:40:54;4.07;;;2.53;;
15655;SDS011;7928;43.614;1.456;2023-04-06T04:43:21;3.70;;;2.10;;
15655;SDS011;7928;43.614;1.456;2023-04-06T04:45:48;2.50;;;1.97;;
15655;SDS011;7928;43.614;1.456;2023-04-06T04:48:15;5.37;;;1.57;;
15655;SDS011;7928;43.614;1.456;2023-04-06T04:50:43;4.23;;;2.47;;
15655;SDS011;7928;43.614;1.456;2023-04-06T04:53:10;5.30;;;2.27;;
15655;SDS011;7928;43.614;1.456;2023-04-06T04:55:38;4.17;;;2.33;;
15655;SDS011;7928;43.614;1.456;2023-04-06T04:58:05;3.87;;;2.30;;
15655;SDS011;7928;43.614;1.456;2023-04-06T05:00:34;7.63;;;2.53;;
15655;SDS011;7928;43.614;1.456;2023-04-06T05:03:01;3.30;;;2.07;;
15655;SDS011;7928;43.614;1.456;2023-04-06T05:05:28;5.40;;;2.77;;
15655;SDS011;7928;43.614;1.456;2023-04-06T05:07:57;3.07;;;1.93;;
15655;SDS011;7928;43.614;1.456;2023-04-06T05:10:24;5.03;;;2.60;;
15655;SDS011;7928;43.614;1.456;2023-04-06T05:12:51;4.10;;;2.43;;
15655;SDS011;7928;43.614;1.456;2023-04-06T05:15:18;5.60;;;3.03;;
15655;SDS011;7928;43.614;1.456;2023-04-06T05:17:45;4.23;;;2.30;;
15655;SDS011;7928;43.614;1.456;2023-04-06T05:20:13;3.90;;;2.50;;
15655;SDS011;7928;43.614;1.456;2023-04-06T05:22:40;6.53;;;2.50;;
15655;SDS011;7928;43.614;1.456;2023-04-06T05:25:08;2.80;;;2.60;;
15655;SDS011;7928;43.614;1.456;2023-04-06T05:27:35;3.63;;;2.43;;
15655;SDS011;7928;43.614;1.456;2023-04-06T05:30:03;6.10;;;2.80;;
15655;SDS011;7928;43.614;1.456;2023-04-06T05:32:31;8.33;;;2.80;;
15655;SDS011;7928;43.614;1.456;2023-04-06T05:34:58;4.93;;;2.80;;
15655;SDS011;7928;43.614;1.456;2023-04-06T05:37:25;4.03;;;2.97;;
15655;SDS011;7928;43.614;1.456;2023-04-06T05:39:52;4.77;;;2.63;;
15655;SDS011;7928;43.614;1.456;2023-04-06T05:42:21;3.80;;;2.83;;
15655;SDS011;7928;43.614;1.456;2023-04-06T05:44:48;6.07;;;2.80;;
15655;SDS011;7928;43.614;1.456;2023-04-06T05:47:15;4.50;;;2.80;;
15655;SDS011;7928;43.614;1.456;2023-04-06T05:49:42;3.83;;;2.33;;
15655;SDS011;7928;43.614;1.456;2023-04-06T05:52:09;4.93;;;3.00;;
15655;SDS011;7928;43.614;1.456;2023-04-06T05:54:36;6.23;;;2.63;;
15655;SDS011;7928;43.614;1.456;2023-04-06T05:57:03;6.50;;;3.03;;
15655;SDS011;7928;43.614;1.456;2023-04-06T05:59:32;4.43;;;2.73;;
15655;SDS011;7928;43.614;1.456;2023-04-06T06:01:59;8.47;;;3.60;;
15655;SDS011;7928;43.614;1.456;2023-04-06T06:04:26;3.67;;;2.77;;
15655;SDS011;7928;43.614;1.456;2023-04-06T06:06:54;5.27;;;2.73;;
15655;SDS011;7928;43.614;1.456;2023-04-06T06:09:21;8.33;;;2.90;;
15655;SDS011;7928;43.614;1.456;2023-04-06T06:11:48;4.30;;;2.67;;
15655;SDS011;7928;43.614;1.456;2023-04-06T06:14:16;7.73;;;2.87;;
15655;SDS011;7928;43.614;1.456;2023-04-06T06:16:44;5.43;;;3.30;;
15655;SDS011;7928;43.614;1.456;2023-04-06T06:19:11;7.87;;;3.13;;
15655;SDS011;7928;43.614;1.456;2023-04-06T06:21:38;4.57;;;3.40;;
15655;SDS011;7928;43.614;1.456;2023-04-06T06:24:05;6.97;;;3.27;;
15655;SDS011;7928;43.614;1.456;2023-04-06T06:26:33;5.33;;;3.07;;
15655;SDS011;7928;43.614;1.456;2023-04-06T06:29:02;4.73;;;3.10;;
15655;SDS011;7928;43.614;1.456;2023-04-06T06:31:30;5.37;;;3.03;;
15655;SDS011;7928;43.614;1.456;2023-04-06T06:33:58;5.20;;;3.17;;
15655;SDS011;7928;43.614;1.456;2023-04-06T06:36:27;5.30;;;3.60;;
15655;SDS011;7928;43.614;1.456;2023-04-06T06:38:54;5.90;;;3.17;;
15655;SDS011;7928;43.614;1.456;2023-04-06T06:41:21;5.70;;;3.00;;
15655;SDS011;7928;43.614;1.456;2023-04-06T06:43:48;7.33;;;3.57;;
15655;SDS011;7928;43.614;1.456;2023-04-06T06:46:16;7.30;;;3.70;;
15655;SDS011;7928;43.614;1.456;2023-04-06T06:48:43;7.47;;;3.73;;
15655;SDS011;7928;43.614;1.456;2023-04-06T06:51:11;4.40;;;3.50;;
15655;SDS011;7928;43.614;1.456;2023-04-06T06:53:38;8.73;;;3.63;;
15655;SDS011;7928;43.614;1.456;2023-04-06T06:56:05;6.97;;;4.10;;
15655;SDS011;7928;43.614;1.456;2023-04-06T06:58:33;9.20;;;5.13;;
15655;SDS011;7928;43.614;1.456;2023-04-06T07:01:00;9.97;;;5.27;;
15655;SDS011;7928;43.614;1.456;2023-04-06T07:03:27;16.53;;;6.30;;
15655;SDS011;7928;43.614;1.456;2023-04-06T07:05:55;13.57;;;6.03;;
15655;SDS011;7928;43.614;1.456;2023-04-06T07:08:23;14.03;;;6.00;;
15655;SDS011;7928;43.614;1.456;2023-04-06T07:10:51;11.10;;;7.13;;
15655;SDS011;7928;43.614;1.456;2023-04-06T07:13:21;12.10;;;5.70;;
15655;SDS011;7928;43.614;1.456;2023-04-06T07:15:48;12.37;;;5.40;;
15655;SDS011;7928;43.614;1.456;2023-04-06T07:18:15;7.70;;;5.00;;
15655;SDS011;7928;43.614;1.456;2023-04-06T07:20:42;6.87;;;4.70;;
15655;SDS011;7928;43.614;1.456;2023-04-06T07:23:10;8.27;;;4.63;;
15655;SDS011;7928;43.614;1.456;2023-04-06T07:25:38;9.17;;;4.70;;
15655;SDS011;7928;43.614;1.456;2023-04-06T07:28:07;9.03;;;4.77;;
15655;SDS011;7928;43.614;1.456;2023-04-06T07:30:34;11.03;;;4.63;;
15655;SDS011;7928;43.614;1.456;2023-04-06T07:33:01;8.63;;;4.97;;
15655;SDS011;7928;43.614;1.456;2023-04-06T07:35:28;9.07;;;5.27;;
15655;SDS011;7928;43.614;1.456;2023-04-06T07:37:55;9.13;;;5.40;;
15655;SDS011;7928;43.614;1.456;2023-04-06T07:40:23;12.37;;;5.30;;
15655;SDS011;7928;43.614;1.456;2023-04-06T07:42:52;8.17;;;4.90;;
15655;SDS011;7928;43.614;1.456;2023-04-06T07:45:19;10.70;;;5.07;;
15655;SDS011;7928;43.614;1.456;2023-04-06T07:47:46;8.37;;;5.20;;
15655;SDS011;7928;43.614;1.456;2023-04-06T07:50:15;7.53;;;4.97;;
15655;SDS011;7928;43.614;1.456;2023-04-06T07:52:42;7.57;;;5.10;;
15655;SDS011;7928;43.614;1.456;2023-04-06T07:55:09;5.37;;;4.53;;
15655;SDS011;7928;43.614;1.456;2023-04-06T07:57:36;9.60;;;4.37;;
15655;SDS011;7928;43.614;1.456;2023-04-06T08:00:06;6.40;;;3.83;;
15655;SDS011;7928;43.614;1.456;2023-04-06T08:02:35;8.13;;;4.40;;
15655;SDS011;7928;43.614;1.456;2023-04-06T08:05:02;8.87;;;4.67;;
15655;SDS011;7928;43.614;1.456;2023-04-06T08:07:29;8.83;;;3.40;;
15655;SDS011;7928;43.614;1.456;2023-04-06T08:09:56;11.90;;;3.50;;
15655;SDS011;7928;43.614;1.456;2023-04-06T08:12:23;7.83;;;3.93;;
15655;SDS011;7928;43.614;1.456;2023-04-06T08:14:50;6.97;;;3.33;;
15655;SDS011;7928;43.614;1.456;2023-04-06T08:17:19;6.40;;;3.20;;
15655;SDS011;7928;43.614;1.456;2023-04-06T08:19:46;4.70;;;3.20;;
15655;SDS011;7928;43.614;1.456;2023-04-06T08:22:13;4.97;;;3.53;;
15655;SDS011;7928;43.614;1.456;2023-04-06T08:24:40;4.63;;;3.20;;
15655;SDS011;7928;43.614;1.456;2023-04-06T08:27:07;6.67;;;3.23;;
15655;SDS011;7928;43.614;1.456;2023-04-06T08:29:34;7.20;;;3.00;;
15655;SDS011;7928;43.614;1.456;2023-04-06T08:32:01;7.10;;;3.97;;
15655;SDS011;7928;43.614;1.456;2023-04-06T08:34:31;5.90;;;3.50;;
15655;SDS011;7928;43.614;1.456;2023-04-06T08:36:58;4.93;;;3.10;;
15655;SDS011;7928;43.614;1.456;2023-04-06T08:39:25;6.57;;;3.27;;
15655;SDS011;7928;43.614;1.456;2023-04-06T08:41:53;10.07;;;4.67;;
15655;SDS011;7928;43.614;1.456;2023-04-06T08:44:22;5.13;;;3.30;;
15655;SDS011;7928;43.614;1.456;2023-04-06T08:46:49;7.17;;;3.30;;
15655;SDS011;7928;43.614;1.456;2023-04-06T08:49:17;6.97;;;3.43;;
15655;SDS011;7928;43.614;1.456;2023-04-06T08:51:46;4.30;;;3.10;;
15655;SDS011;7928;43.614;1.456;2023-04-06T08:54:15;5.53;;;3.17;;
15655;SDS011;7928;43.614;1.456;2023-04-06T08:56:42;5.97;;;3.73;;
15655;SDS011;7928;43.614;1.456;2023-04-06T08:59:10;7.47;;;3.57;;
15655;SDS011;7928;43.614;1.456;2023-04-06T09:01:38;6.47;;;3.70;;
15655;SDS011;7928;43.614;1.456;2023-04-06T09:04:07;7.03;;;3.53;;
15655;SDS011;7928;43.614;1.456;2023-04-06T09:06:35;5.40;;;3.60;;
15655;SDS011;7928;43.614;1.456;2023-04-06T09:09:04;5.37;;;3.33;;
15655;SDS011;7928;43.614;1.456;2023-04-06T09:11:41;5.20;;;3.03;;
15655;SDS011;7928;43.614;1.456;2023-04-06T09:14:09;5.33;;;3.33;;
15655;SDS011;7928;43.614;1.456;2023-04-06T09:16:39;8.20;;;3.73;;
15655;SDS011;7928;43.614;1.456;2023-04-06T09:19:07;10.37;;;3.27;;
15655;SDS011;7928;43.614;1.456;2023-04-06T09:21:35;6.90;;;3.97;;
15655;SDS011;7928;43.614;1.456;2023-04-06T09:24:02;7.10;;;3.07;;
15655;SDS011;7928;43.614;1.456;2023-04-06T09:26:32;6.47;;;2.80;;
15655;SDS011;7928;43.614;1.456;2023-04-06T09:29:01;7.03;;;2.83;;
15655;SDS011;7928;43.614;1.456;2023-04-06T09:31:29;5.13;;;2.63;;
15655;SDS011;7928;43.614;1.456;2023-04-06T09:33:58;7.23;;;3.03;;
15655;SDS011;7928;43.614;1.456;2023-04-06T09:36:29;4.13;;;2.20;;
15655;SDS011;7928;43.614;1.456;2023-04-06T09:38:58;4.47;;;2.57;;
15655;SDS011;7928;43.614;1.456;2023-04-06T09:41:28;3.80;;;2.83;;
15655;SDS011;7928;43.614;1.456;2023-04-06T09:44:02;3.97;;;2.90;;
15655;SDS011;7928;43.614;1.456;2023-04-06T09:46:31;7.77;;;2.23;;
15655;SDS011;7928;43.614;1.456;2023-04-06T09:48:59;4.20;;;2.50;;
15655;SDS011;7928;43.614;1.456;2023-04-06T09:51:28;3.70;;;2.50;;
15655;SDS011;7928;43.614;1.456;2023-04-06T09:53:57;8.90;;;2.37;;
15655;SDS011;7928;43.614;1.456;2023-04-06T09:56:31;4.67;;;2.33;;
15655;SDS011;7928;43.614;1.456;2023-04-06T09:59:08;7.20;;;2.50;;
15655;SDS011;7928;43.614;1.456;2023-04-06T10:01:39;3.37;;;2.60;;
15655;SDS011;7928;43.614;1.456;2023-04-06T10:04:16;4.73;;;3.60;;
15655;SDS011;7928;43.614;1.456;2023-04-06T10:06:53;5.30;;;3.23;;
15655;SDS011;7928;43.614;1.456;2023-04-06T10:09:23;4.07;;;2.57;;
15655;SDS011;7928;43.614;1.456;2023-04-06T10:11:55;6.90;;;3.77;;
15655;SDS011;7928;43.614;1.456;2023-04-06T10:14:25;4.60;;;2.47;;
15655;SDS011;7928;43.614;1.456;2023-04-06T10:16:52;3.97;;;2.57;;
15655;SDS011;7928;43.614;1.456;2023-04-06T10:19:20;3.83;;;2.47;;
15655;SDS011;7928;43.614;1.456;2023-04-06T10:21:53;4.90;;;2.50;;
15655;SDS011;7928;43.614;1.456;2023-04-06T10:24:22;4.03;;;2.30;;
15655;SDS011;7928;43.614;1.456;2023-04-06T10:26:57;3.37;;;2.43;;
15655;SDS011;7928;43.614;1.456;2023-04-06T10:29:25;5.67;;;2.40;;
15655;SDS011;7928;43.614;1.456;2023-04-06T10:31:52;4.57;;;2.33;;
15655;SDS011;7928;43.614;1.456;2023-04-06T10:34:20;6.73;;;2.10;;
15655;SDS011;7928;43.614;1.456;2023-04-06T10:36:47;2.50;;;1.90;;
15655;SDS011;7928;43.614;1.456;2023-04-06T10:39:14;3.00;;;2.07;;
15655;SDS011;7928;43.614;1.456;2023-04-06T10:41:52;4.40;;;2.20;;
15655;SDS011;7928;43.614;1.456;2023-04-06T10:44:21;4.87;;;2.10;;
15655;SDS011;7928;43.614;1.456;2023-04-06T10:46:52;4.73;;;2.00;;
15655;SDS011;7928;43.614;1.456;2023-04-06T10:49:20;9.13;;;2.10;;
15655;SDS011;7928;43.614;1.456;2023-04-06T10:51:51;3.63;;;2.10;;
15655;SDS011;7928;43.614;1.456;2023-04-06T10:54:20;1.67;;;1.50;;
15655;SDS011;7928;43.614;1.456;2023-04-06T10:56:48;2.20;;;1.90;;
15655;SDS011;7928;43.614;1.456;2023-04-06T10:59:18;4.30;;;1.83;;
15655;SDS011;7928;43.614;1.456;2023-04-06T11:01:48;2.53;;;1.80;;
15655;SDS011;7928;43.614;1.456;2023-04-06T11:04:16;2.63;;;1.90;;
15655;SDS011;7928;43.614;1.456;2023-04-06T11:06:46;5.57;;;1.70;;
15655;SDS011;7928;43.614;1.456;2023-04-06T11:09:22;5.67;;;1.90;;
15655;SDS011;7928;43.614;1.456;2023-04-06T11:11:51;3.35;;;1.90;;
15655;SDS011;7928;43.614;1.456;2023-04-06T11:14:20;2.45;;;1.80;;
15655;SDS011;7928;43.614;1.456;2023-04-06T11:16:48;2.20;;;1.67;;
15655;SDS011;7928;43.614;1.456;2023-04-06T11:19:15;2.95;;;2.22;;
15655;SDS011;7928;43.614;1.456;2023-04-06T11:21:43;2.88;;;2.08;;
15655;SDS011;7928;43.614;1.456;2023-04-06T11:24:12;2.50;;;2.17;;
15655;SDS011;7928;43.614;1.456;2023-04-06T11:26:42;3.92;;;2.88;;
15655;SDS011;7928;43.614;1.456;2023-04-06T11:29:10;3.15;;;2.20;;
15655;SDS011;7928;43.614;1.456;2023-04-06T11:31:44;3.38;;;2.38;;
15655;SDS011;7928;43.614;1.456;2023-04-06T11:34:13;2.70;;;2.10;;
15655;SDS011;7928;43.614;1.456;2023-04-06T11:36:43;2.45;;;2.22;;
15655;SDS011;7928;43.614;1.456;2023-04-06T11:39:12;4.53;;;2.10;;
15655;SDS011;7928;43.614;1.456;2023-04-06T11:41:39;3.80;;;2.13;;
15655;SDS011;7928;43.614;1.456;2023-04-06T11:44:06;3.00;;;2.10;;
15655;SDS011;7928;43.614;1.456;2023-04-06T11:46:35;2.10;;;1.90;;
15655;SDS011;7928;43.614;1.456;2023-04-06T11:49:03;3.03;;;1.92;;
15655;SDS011;7928;43.614;1.456;2023-04-06T11:51:35;3.00;;;1.63;;
15655;SDS011;7928;43.614;1.456;2023-04-06T11:54:02;4.85;;;1.80;;
15655;SDS011;7928;43.614;1.456;2023-04-06T11:56:29;3.83;;;1.88;;
15655;SDS011;7928;43.614;1.456;2023-04-06T11:58:57;2.65;;;1.70;;
15655;SDS011;7928;43.614;1.456;2023-04-06T12:01:25;2.80;;;1.60;;
15655;SDS011;7928;43.614;1.456;2023-04-06T12:03:52;2.45;;;1.70;;
15655;SDS011;7928;43.614;1.456;2023-04-06T12:06:21;2.85;;;2.10;;
15655;SDS011;7928;43.614;1.456;2023-04-06T12:08:50;1.55;;;1.10;;
15655;SDS011;7928;43.614;1.456;2023-04-06T12:11:17;2.85;;;1.40;;
15655;SDS011;7928;43.614;1.456;2023-04-06T12:13:45;2.30;;;1.35;;
15655;SDS011;7928;43.614;1.456;2023-04-06T12:16:12;2.90;;;1.60;;
15655;SDS011;7928;43.614;1.456;2023-04-06T12:18:39;1.48;;;1.35;;
15655;SDS011;7928;43.614;1.456;2023-04-06T12:21:06;1.67;;;1.35;;
15655;SDS011;7928;43.614;1.456;2023-04-06T12:23:35;3.10;;;1.30;;
15655;SDS011;7928;43.614;1.456;2023-04-06T12:26:02;1.58;;;1.08;;
15655;SDS011;7928;43.614;1.456;2023-04-06T12:28:30;1.73;;;1.33;;
15655;SDS011;7928;43.614;1.456;2023-04-06T12:30:57;1.60;;;1.30;;
15655;SDS011;7928;43.614;1.456;2023-04-06T12:33:24;1.20;;;1.10;;
15655;SDS011;7928;43.614;1.456;2023-04-06T12:35:51;3.95;;;1.23;;
15655;SDS011;7928;43.614;1.456;2023-04-06T12:38:18;1.98;;;1.02;;
15655;SDS011;7928;43.614;1.456;2023-04-06T12:40:47;1.20;;;1.10;;
15655;SDS011;7928;43.614;1.456;2023-04-06T12:43:14;4.00;;;1.35;;
15655;SDS011;7928;43.614;1.456;2023-04-06T12:45:41;2.65;;;1.02;;
15655;SDS011;7928;43.614;1.456;2023-04-06T12:48:08;2.28;;;1.20;;
15655;SDS011;7928;43.614;1.456;2023-04-06T12:50:35;1.77;;;1.05;;
15655;SDS011;7928;43.614;1.456;2023-04-06T12:53:02;2.25;;;0.90;;
15655;SDS011;7928;43.614;1.456;2023-04-06T12:55:29;1.50;;;1.15;;
15655;SDS011;7928;43.614;1.456;2023-04-06T12:58:00;2.97;;;1.50;;
15655;SDS011;7928;43.614;1.456;2023-04-06T13:00:28;2.40;;;1.10;;
15655;SDS011;7928;43.614;1.456;2023-04-06T13:02:55;1.35;;;1.13;;
15655;SDS011;7928;43.614;1.456;2023-04-06T13:05:22;2.47;;;1.33;;
15655;SDS011;7928;43.614;1.456;2023-04-06T13:07:50;2.30;;;1.30;;
15655;SDS011;7928;43.614;1.456;2023-04-06T13:10:17;3.55;;;1.20;;
15655;SDS011;7928;43.614;1.456;2023-04-06T13:12:44;1.65;;;1.38;;
15655;SDS011;7928;43.614;1.456;2023-04-06T13:15:12;2.38;;;1.17;;
15655;SDS011;7928;43.614;1.456;2023-04-06T13:17:40;1.77;;;1.10;;
15655;SDS011;7928;43.614;1.456;2023-04-06T13:20:07;2.08;;;1.40;;
15655;SDS011;7928;43.614;1.456;2023-04-06T13:22:35;4.05;;;1.30;;
15655;SDS011;7928;43.614;1.456;2023-04-06T13:25:02;2.35;;;1.50;;
15655;SDS011;7928;43.614;1.456;2023-04-06T13:27:30;2.38;;;1.27;;
15655;SDS011;7928;43.614;1.456;2023-04-06T13:29:58;1.67;;;1.17;;
15655;SDS011;7928;43.614;1.456;2023-04-06T13:32:27;1.35;;;1.10;;
15655;SDS011;7928;43.614;1.456;2023-04-06T13:34:55;1.75;;;1.20;;
15655;SDS011;7928;43.614;1.456;2023-04-06T13:37:22;1.60;;;1.05;;
15655;SDS011;7928;43.614;1.456;2023-04-06T13:39:50;2.65;;;1.20;;
15655;SDS011;7928;43.614;1.456;2023-04-06T13:42:17;1.63;;;1.13;;
15655;SDS011;7928;43.614;1.456;2023-04-06T13:44:44;1.83;;;1.30;;
15655;SDS011;7928;43.614;1.456;2023-04-06T13:47:12;3.70;;;1.30;;
15655;SDS011;7928;43.614;1.456;2023-04-06T13:49:41;1.92;;;0.98;;
15655;SDS011;7928;43.614;1.456;2023-04-06T13:52:08;1.75;;;1.17;;
15655;SDS011;7928;43.614;1.456;2023-04-06T13:54:36;1.80;;;1.33;;
15655;SDS011;7928;43.614;1.456;2023-04-06T13:57:03;1.40;;;1.30;;
15655;SDS011;7928;43.614;1.456;2023-04-06T13:59:32;2.72;;;1.35;;
15655;SDS011;7928;43.614;1.456;2023-04-06T14:01:59;1.65;;;1.13;;
15655;SDS011;7928;43.614;1.456;2023-04-06T14:04:26;1.73;;;1.33;;
15655;SDS011;7928;43.614;1.456;2023-04-06T14:06:55;0.73;;;0.73;;
15655;SDS011;7928;43.614;1.456;2023-04-06T14:09:22;2.88;;;1.35;;
15655;SDS011;7928;43.614;1.456;2023-04-06T14:11:49;2.78;;;1.55;;
15655;SDS011;7928;43.614;1.456;2023-04-06T14:14:17;1.20;;;1.10;;
15655;SDS011;7928;43.614;1.456;2023-04-06T14:16:44;2.35;;;1.20;;
15655;SDS011;7928;43.614;1.456;2023-04-06T14:19:12;1.63;;;1.23;;
15655;SDS011;7928;43.614;1.456;2023-04-06T14:21:40;1.42;;;1.10;;
15655;SDS011;7928;43.614;1.456;2023-04-06T14:24:10;1.67;;;1.27;;
15655;SDS011;7928;43.614;1.456;2023-04-06T14:26:38;1.55;;;1.00;;
15655;SDS011;7928;43.614;1.456;2023-04-06T14:29:06;1.52;;;0.98;;
15655;SDS011;7928;43.614;1.456;2023-04-06T14:31:34;1.30;;;1.00;;
15655;SDS011;7928;43.614;1.456;2023-04-06T14:34:02;1.35;;;1.17;;
15655;SDS011;7928;43.614;1.456;2023-04-06T14:36:30;2.53;;;0.90;;
15655;SDS011;7928;43.614;1.456;2023-04-06T14:39:01;3.45;;;1.10;;
15655;SDS011;7928;43.614;1.456;2023-04-06T14:41:31;1.33;;;0.85;;
15655;SDS011;7928;43.614;1.456;2023-04-06T14:43:59;1.50;;;0.98;;
15655;SDS011;7928;43.614;1.456;2023-04-06T14:46:26;2.10;;;1.20;;
15655;SDS011;7928;43.614;1.456;2023-04-06T14:48:54;3.15;;;1.10;;
15655;SDS011;7928;43.614;1.456;2023-04-06T14:51:23;1.20;;;0.80;;
15655;SDS011;7928;43.614;1.456;2023-04-06T14:53:52;1.73;;;0.93;;
15655;SDS011;7928;43.614;1.456;2023-04-06T14:56:19;2.80;;;1.20;;
15655;SDS011;7928;43.614;1.456;2023-04-06T14:58:48;1.10;;;1.00;;
15655;SDS011;7928;43.614;1.456;2023-04-06T15:01:16;1.73;;;1.00;;
15655;SDS011;7928;43.614;1.456;2023-04-06T15:03:44;6.32;;;1.33;;